createdAt,value
2022-09-10T00:00:43.659Z,12.40
2022-09-10T00:03:50.021Z,12.30
2022-09-10T00:06:56.691Z,12.30
2022-09-10T00:10:00.453Z,12.30
2022-09-10T00:13:03.878Z,12.30
2022-09-10T00:16:09.621Z,12.30
2022-09-10T00:19:14.811Z,12.20
2022-09-10T00:22:20.565Z,12.20
2022-09-10T00:25:24.077Z,12.30
2022-09-10T00:28:29.663Z,12.20
2022-09-10T00:31:34.501Z,12.20
2022-09-10T00:34:37.976Z,12.20
2022-09-10T00:37:42.912Z,12.20
2022-09-10T00:40:47.116Z,12.20
2022-09-10T00:43:53.221Z,12.20
2022-09-10T00:46:59.220Z,12.20
2022-09-10T00:50:07.013Z,12.30
2022-09-10T00:53:15.716Z,12.30
2022-09-10T00:56:19.754Z,12.20
2022-09-10T00:59:26.893Z,12.10
2022-09-10T01:02:30.782Z,12.10
2022-09-10T01:05:34.816Z,12.00
2022-09-10T01:08:40.138Z,12.00
2022-09-10T01:11:58.920Z,12.00
2022-09-10T01:15:15.841Z,12.00
2022-09-10T01:18:32.792Z,12.00
2022-09-10T01:21:41.662Z,12.00
2022-09-10T01:25:01.100Z,12.00
2022-09-10T01:28:10.058Z,12.00
2022-09-10T01:31:23.696Z,12.00
2022-09-10T01:34:33.271Z,12.00
2022-09-10T01:37:41.018Z,12.00
2022-09-10T01:40:46.466Z,12.00
2022-09-10T01:43:56.145Z,12.00
2022-09-10T01:47:08.968Z,11.90
2022-09-10T01:50:22.924Z,11.90
2022-09-10T01:53:47.525Z,12.00
2022-09-10T01:56:58.492Z,11.90
2022-09-10T02:00:10.062Z,11.80
2022-09-10T02:03:22.825Z,11.90
2022-09-10T02:06:31.403Z,11.90
2022-09-10T02:09:36.255Z,11.90
2022-09-10T02:12:43.990Z,11.80
2022-09-10T02:16:12.501Z,11.90
2022-09-10T02:19:19.665Z,11.90
2022-09-10T02:22:27.656Z,11.90
2022-09-10T02:25:37.393Z,11.80
2022-09-10T02:28:41.679Z,11.90
2022-09-10T02:31:47.580Z,11.90
2022-09-10T02:34:51.831Z,11.90
2022-09-10T02:37:56.972Z,11.80
2022-09-10T02:41:00.417Z,11.80
2022-09-10T02:44:04.916Z,11.80
2022-09-10T02:47:09.775Z,11.80
2022-09-10T02:50:13.207Z,11.80
2022-09-10T02:53:16.652Z,11.80
2022-09-10T02:56:20.659Z,11.80
2022-09-10T02:59:24.281Z,11.80
2022-09-10T03:02:29.247Z,11.80
2022-09-10T03:05:32.766Z,11.80
2022-09-10T03:08:37.211Z,11.80
2022-09-10T03:11:40.827Z,11.80
2022-09-10T03:14:44.454Z,11.80
2022-09-10T03:17:49.250Z,11.80
2022-09-10T03:20:53.539Z,11.80
2022-09-10T03:23:57.367Z,11.90
2022-09-10T03:27:07.164Z,11.90
2022-09-10T03:30:12.666Z,11.90
2022-09-10T03:33:21.362Z,11.90
2022-09-10T03:36:25.345Z,11.80
2022-09-10T03:39:29.004Z,11.80
2022-09-10T03:42:32.711Z,11.80
2022-09-10T03:45:37.442Z,11.80
2022-09-10T03:48:43.587Z,11.80
2022-09-10T03:51:48.270Z,11.80
2022-09-10T03:54:52.916Z,11.90
2022-09-10T03:57:56.672Z,11.80
2022-09-10T04:01:00.233Z,11.90
2022-09-10T04:04:08.298Z,11.90
2022-09-10T04:07:12.667Z,11.90
2022-09-10T04:10:16.084Z,11.80
2022-09-10T04:13:20.470Z,11.80
2022-09-10T04:16:24.601Z,11.90
2022-09-10T04:19:29.807Z,11.90
2022-09-10T04:22:33.251Z,11.80
2022-09-10T04:25:37.408Z,11.90
2022-09-10T04:28:40.824Z,12.00
2022-09-10T04:31:46.954Z,11.90
2022-09-10T04:34:55.345Z,12.00
2022-09-10T04:37:59.207Z,11.90
2022-09-10T04:41:03.110Z,11.90
2022-09-10T04:44:06.684Z,12.00
2022-09-10T04:47:11.232Z,12.00
2022-09-10T04:50:17.790Z,12.00
2022-09-10T04:53:41.914Z,12.00
2022-09-10T04:56:47.493Z,11.90
2022-09-10T04:59:51.285Z,11.90
2022-09-10T05:02:54.854Z,11.90
2022-09-10T05:06:00.102Z,11.90
2022-09-10T05:09:04.663Z,12.00
2022-09-10T05:12:09.422Z,12.00
2022-09-10T05:15:12.820Z,12.10
2022-09-10T05:18:16.722Z,12.00
2022-09-10T05:21:22.548Z,12.00
2022-09-10T05:24:28.353Z,12.00
2022-09-10T05:27:31.866Z,12.00
2022-09-10T05:30:36.729Z,12.10
2022-09-10T05:33:40.910Z,12.10
2022-09-10T05:36:52.198Z,12.20
2022-09-10T05:40:16.361Z,12.20
2022-09-10T05:43:20.716Z,12.20
2022-09-10T05:46:25.663Z,12.40
2022-09-10T05:49:33.931Z,12.40
2022-09-10T05:52:40.494Z,12.40
2022-09-10T05:55:46.322Z,12.30
2022-09-10T05:58:50.614Z,12.30
2022-09-10T06:01:54.928Z,12.30
2022-09-10T06:05:01.304Z,12.30
2022-09-10T06:08:08.733Z,12.40
2022-09-10T06:11:16.328Z,12.30
2022-09-10T06:14:25.363Z,12.30
2022-09-10T06:17:30.444Z,12.30
2022-09-10T06:20:34.745Z,12.40
2022-09-10T06:23:40.500Z,12.40
2022-09-10T06:26:44.238Z,12.50
2022-09-10T06:29:50.066Z,12.50
2022-09-10T06:32:53.974Z,12.40
2022-09-10T06:35:59.200Z,12.50
2022-09-10T06:39:07.232Z,12.60
2022-09-10T06:42:24.516Z,12.60
2022-09-10T06:45:41.259Z,12.40
2022-09-10T06:49:03.421Z,12.50
2022-09-10T06:52:11.628Z,12.50
2022-09-10T06:55:18.794Z,12.60
2022-09-10T06:58:25.472Z,12.70
2022-09-10T07:01:29.818Z,12.70
2022-09-10T07:04:36.614Z,12.80
2022-09-10T07:07:41.692Z,12.80
2022-09-10T07:10:48.031Z,12.90
2022-09-10T07:13:53.309Z,13.00
2022-09-10T07:17:00.711Z,13.00
2022-09-10T07:20:07.368Z,12.90
2022-09-10T07:23:24.568Z,12.80
2022-09-10T07:26:32.159Z,12.90
2022-09-10T07:29:36.739Z,12.90
2022-09-10T07:32:43.510Z,13.00
2022-09-10T07:35:52.063Z,13.00
2022-09-10T07:39:01.889Z,12.90
2022-09-10T07:42:12.019Z,12.90
2022-09-10T07:45:17.285Z,12.80
2022-09-10T07:48:22.206Z,12.70
2022-09-10T07:51:29.311Z,12.80
2022-09-10T07:54:36.390Z,12.90
2022-09-10T07:57:43.991Z,13.00
2022-09-10T08:00:49.484Z,12.90
2022-09-10T08:03:57.015Z,12.80
2022-09-10T08:07:01.306Z,12.90
2022-09-10T08:10:07.755Z,12.90
2022-09-10T08:13:13.366Z,12.90
2022-09-10T08:16:20.618Z,13.00
2022-09-10T08:19:25.117Z,12.90
2022-09-10T08:22:29.633Z,13.10
2022-09-10T08:25:34.947Z,13.20
2022-09-10T08:28:41.691Z,13.20
2022-09-10T08:31:45.708Z,13.30
2022-09-10T08:34:56.522Z,13.30
2022-09-10T08:38:02.700Z,13.60
2022-09-10T08:41:13.903Z,13.50
2022-09-10T08:44:24.876Z,13.40
2022-09-10T08:47:33.610Z,13.30
2022-09-10T08:50:49.976Z,13.00
2022-09-10T08:54:01.793Z,13.20
2022-09-10T08:57:11.227Z,13.20
2022-09-10T09:00:23.193Z,13.30
2022-09-10T09:03:34.816Z,13.50
2022-09-10T09:06:44.004Z,13.40
2022-09-10T09:09:51.493Z,13.40
2022-09-10T09:13:22.017Z,13.60
2022-09-10T09:16:32.933Z,13.60
2022-09-10T09:19:53.679Z,13.70
2022-09-10T09:23:03.092Z,13.70
2022-09-10T09:26:13.795Z,13.70
2022-09-10T09:29:27.394Z,13.40
2022-09-10T09:32:36.989Z,13.50
2022-09-10T09:35:47.415Z,13.50
2022-09-10T09:38:52.750Z,13.60
2022-09-10T09:42:06.180Z,13.60
2022-09-10T09:45:25.463Z,13.50
2022-09-10T09:48:38.783Z,13.50
2022-09-10T09:51:44.089Z,13.60
2022-09-10T09:55:13.764Z,13.60
2022-09-10T09:58:50.811Z,13.80
2022-09-10T10:01:55.723Z,14.00
2022-09-10T10:05:09.431Z,14.00
2022-09-10T10:08:31.077Z,14.10
2022-09-10T10:11:50.255Z,14.00
2022-09-10T10:14:53.656Z,13.90
2022-09-10T10:17:57.487Z,13.90
2022-09-10T10:21:19.883Z,13.60
2022-09-10T10:24:32.984Z,13.60
2022-09-10T10:27:38.336Z,13.50
2022-09-10T10:30:43.311Z,13.40
2022-09-10T10:33:52.368Z,13.30
2022-09-10T10:37:04.693Z,13.30
2022-09-10T10:40:19.830Z,13.20
2022-09-10T10:43:34.780Z,13.30
2022-09-10T10:46:46.042Z,13.30
2022-09-10T10:50:03.621Z,13.40
2022-09-10T10:53:19.974Z,13.50
2022-09-10T10:56:31.077Z,13.50
2022-09-10T10:59:46.908Z,13.40
2022-09-10T11:02:54.621Z,13.60
2022-09-10T11:06:02.743Z,13.60
2022-09-10T11:09:15.001Z,13.70
2022-09-10T11:12:22.541Z,13.80
2022-09-10T11:15:36.111Z,13.80
2022-09-10T11:18:46.839Z,13.80
2022-09-10T11:21:55.571Z,13.70
2022-09-10T11:25:09.383Z,13.70
2022-09-10T11:28:16.817Z,13.70
2022-09-10T11:31:31.403Z,13.70
2022-09-10T11:34:42.266Z,13.80
2022-09-10T11:38:02.121Z,13.60
2022-09-10T11:41:14.726Z,13.60
2022-09-10T11:44:36.806Z,13.50
2022-09-10T11:47:45.827Z,13.60
2022-09-10T11:50:56.162Z,13.70
2022-09-10T11:54:00.101Z,13.50
2022-09-10T11:57:10.628Z,13.60
2022-09-10T12:00:17.052Z,13.30
2022-09-10T12:03:46.493Z,13.70
2022-09-10T12:07:05.149Z,13.20
2022-09-10T12:10:18.605Z,13.30
2022-09-10T12:13:25.252Z,13.20
2022-09-10T12:16:35.871Z,13.30
2022-09-10T12:19:46.251Z,13.30
2022-09-10T12:22:54.926Z,13.30
2022-09-10T12:26:00.687Z,13.30
2022-09-10T12:29:06.815Z,13.20
2022-09-10T12:32:32.771Z,13.20
2022-09-10T12:35:46.208Z,13.20
2022-09-10T12:39:17.502Z,13.30
2022-09-10T12:42:33.672Z,13.20
2022-09-10T12:46:07.179Z,13.30
2022-09-10T12:49:14.099Z,13.20
2022-09-10T12:52:25.845Z,13.20
2022-09-10T12:55:41.846Z,13.20
2022-09-10T12:59:00.746Z,13.20
2022-09-10T13:02:21.497Z,13.20
2022-09-10T13:05:32.723Z,13.20
2022-09-10T13:08:41.640Z,13.20
2022-09-10T13:11:50.885Z,13.10
2022-09-10T13:14:57.558Z,13.10
2022-09-10T13:18:25.943Z,13.10
2022-09-10T13:21:52.173Z,13.10
2022-09-10T13:25:02.127Z,13.10
2022-09-10T13:28:44.171Z,13.10
2022-09-10T13:31:48.256Z,13.00
2022-09-10T13:35:27.472Z,13.00
2022-09-10T13:38:47.226Z,13.00
2022-09-10T13:42:03.820Z,13.00
2022-09-10T13:45:21.820Z,13.00
2022-09-10T13:48:28.936Z,13.00
2022-09-10T13:51:37.673Z,13.00
2022-09-10T13:54:47.963Z,13.00
2022-09-10T13:57:54.826Z,13.00
2022-09-10T14:01:00.872Z,13.00
2022-09-10T14:04:23.431Z,13.00
2022-09-10T14:07:29.589Z,12.90
2022-09-10T14:10:49.729Z,12.90
2022-09-10T14:13:57.755Z,12.90
2022-09-10T14:17:06.842Z,13.00
2022-09-10T14:20:19.168Z,13.00
2022-09-10T14:23:22.613Z,13.00
2022-09-10T14:26:30.099Z,13.00
2022-09-10T14:29:33.512Z,13.00
2022-09-10T14:32:38.914Z,12.90
2022-09-10T14:35:44.717Z,12.90
2022-09-10T14:38:55.676Z,12.90
2022-09-10T14:42:27.393Z,12.90
2022-09-10T14:45:46.156Z,12.90
2022-09-10T14:49:09.273Z,12.80
2022-09-10T14:52:13.180Z,12.80
2022-09-10T14:55:18.640Z,12.80
2022-09-10T14:58:23.643Z,12.80
2022-09-10T15:01:30.382Z,12.80
2022-09-10T15:04:34.004Z,12.80
2022-09-10T15:07:37.607Z,12.80
2022-09-10T15:10:41.261Z,12.80
2022-09-10T15:13:47.369Z,12.80
2022-09-10T15:16:52.245Z,12.80
2022-09-10T15:19:56.048Z,12.80
2022-09-10T15:22:59.603Z,12.80
2022-09-10T15:26:05.692Z,12.90
2022-09-10T15:29:11.049Z,12.80
2022-09-10T15:32:14.567Z,12.80
2022-09-10T15:35:22.633Z,12.70
2022-09-10T15:38:28.029Z,12.80
2022-09-10T15:41:32.220Z,12.80
2022-09-10T15:44:37.046Z,12.80
2022-09-10T15:47:41.926Z,12.80
2022-09-10T15:50:45.423Z,12.80
2022-09-10T15:53:50.038Z,12.70
2022-09-10T15:56:54.025Z,12.70
2022-09-10T16:00:01.923Z,12.60
2022-09-10T16:03:07.594Z,12.70
2022-09-10T16:06:11.025Z,12.60
2022-09-10T16:09:15.546Z,12.60
2022-09-10T16:12:19.357Z,12.60
2022-09-10T16:15:24.756Z,12.50
2022-09-10T16:18:29.433Z,12.60
2022-09-10T16:21:34.466Z,12.50
2022-09-10T16:24:38.037Z,12.50
2022-09-10T16:27:43.416Z,12.50
2022-09-10T16:30:48.571Z,12.40
2022-09-10T16:33:54.966Z,12.40
2022-09-10T16:36:58.913Z,12.40
2022-09-10T16:40:05.334Z,12.30
2022-09-10T16:43:08.634Z,12.40
2022-09-10T16:46:14.098Z,12.40
2022-09-10T16:49:19.708Z,12.40
2022-09-10T16:52:23.053Z,12.30
2022-09-10T16:55:26.459Z,12.30
2022-09-10T16:58:35.636Z,12.30
2022-09-10T17:01:41.524Z,12.20
2022-09-10T17:04:45.932Z,12.20
2022-09-10T17:07:50.037Z,12.20
2022-09-10T17:10:53.549Z,12.20
2022-09-10T17:13:57.735Z,12.10
2022-09-10T17:17:02.444Z,12.20
2022-09-10T17:20:07.426Z,12.20
2022-09-10T17:23:12.786Z,12.10
2022-09-10T17:26:16.220Z,12.10
2022-09-10T17:29:22.284Z,12.10
2022-09-10T17:32:27.305Z,12.10
2022-09-10T17:35:32.798Z,12.10
2022-09-10T17:38:37.224Z,12.00
2022-09-10T17:41:41.251Z,12.00
2022-09-10T17:44:45.687Z,12.00
2022-09-10T17:47:51.212Z,12.00
2022-09-10T17:50:54.650Z,11.90
2022-09-10T17:53:58.878Z,12.00
2022-09-10T17:57:02.463Z,12.00
2022-09-10T18:00:07.063Z,11.90
2022-09-10T18:03:14.881Z,11.90
2022-09-10T18:06:18.678Z,11.90
2022-09-10T18:09:23.846Z,11.90
2022-09-10T18:12:28.122Z,11.90
2022-09-10T18:15:32.537Z,11.90
2022-09-10T18:18:39.957Z,11.90
2022-09-10T18:21:45.653Z,11.90
2022-09-10T18:24:50.097Z,11.90
2022-09-10T18:27:54.957Z,11.90
2022-09-10T18:31:05.460Z,11.90
2022-09-10T18:34:17.543Z,11.80
2022-09-10T18:37:26.186Z,11.90
2022-09-10T18:40:31.441Z,11.90
2022-09-10T18:43:40.670Z,11.90
2022-09-10T18:46:47.519Z,11.90
2022-09-10T18:49:56.696Z,11.90
2022-09-10T18:53:02.708Z,11.90
2022-09-10T18:56:18.221Z,11.90
2022-09-10T18:59:27.006Z,11.90
2022-09-10T19:02:32.257Z,11.80
2022-09-10T19:05:41.645Z,11.90
2022-09-10T19:08:51.163Z,11.80
2022-09-10T19:12:18.593Z,11.70
2022-09-10T19:19:18.628Z,11.70
2022-09-10T19:22:27.590Z,11.60
2022-09-10T19:25:34.119Z,11.70
2022-09-10T19:28:44.295Z,11.60
2022-09-10T19:31:50.252Z,11.70
2022-09-10T19:34:55.635Z,11.60
2022-09-10T19:38:21.090Z,11.60
2022-09-10T19:41:28.713Z,11.60
2022-09-10T19:44:33.748Z,11.60
2022-09-10T19:47:53.796Z,11.60
2022-09-10T19:51:03.125Z,11.50
2022-09-10T19:54:10.409Z,11.50
2022-09-10T19:57:14.619Z,11.50
2022-09-10T20:00:43.040Z,11.50
2022-09-10T20:03:46.723Z,11.60
2022-09-10T20:06:51.214Z,11.50
2022-09-10T20:09:57.212Z,11.50
2022-09-10T20:13:01.351Z,11.50
2022-09-10T20:16:06.855Z,11.40
2022-09-10T20:19:12.976Z,11.40
2022-09-10T20:22:16.883Z,11.30
2022-09-10T20:25:22.053Z,11.20
2022-09-10T20:28:26.948Z,11.20
2022-09-10T20:31:32.730Z,11.20
2022-09-10T20:34:36.968Z,11.20
2022-09-10T20:37:41.071Z,11.30
2022-09-10T20:40:46.666Z,11.20
2022-09-10T20:43:53.127Z,11.20
2022-09-10T20:46:58.017Z,11.20
2022-09-10T20:50:03.366Z,11.20
2022-09-10T20:53:07.204Z,11.20
2022-09-10T20:56:14.220Z,11.20
2022-09-10T20:59:19.373Z,11.20
2022-09-10T21:02:23.042Z,11.20
2022-09-10T21:05:28.240Z,11.20
2022-09-10T21:08:32.460Z,11.20
2022-09-10T21:11:37.776Z,11.30
2022-09-10T21:14:41.200Z,11.30
2022-09-10T21:17:45.026Z,11.30
2022-09-10T21:20:48.525Z,11.20
2022-09-10T21:23:53.368Z,11.20
2022-09-10T21:26:58.373Z,11.30
2022-09-10T21:30:04.370Z,11.20
2022-09-10T21:33:07.676Z,11.20
2022-09-10T21:36:14.525Z,11.30
2022-09-10T21:39:19.760Z,11.30
2022-09-10T21:42:24.611Z,11.20
2022-09-10T21:45:28.064Z,11.30
2022-09-10T21:48:32.336Z,11.30
2022-09-10T21:51:36.139Z,11.40
2022-09-10T21:54:39.465Z,11.30
2022-09-10T21:57:44.253Z,11.30
2022-09-10T22:00:47.744Z,11.30
2022-09-10T22:03:52.858Z,11.30
2022-09-10T22:06:57.816Z,11.30
2022-09-10T22:10:01.276Z,11.30
2022-09-10T22:13:06.380Z,11.40
2022-09-10T22:16:12.289Z,11.30
2022-09-10T22:19:18.082Z,11.30
2022-09-10T22:22:22.027Z,11.30
2022-09-10T22:25:25.751Z,11.30
2022-09-10T22:28:34.282Z,11.30
2022-09-10T22:31:38.695Z,11.30
2022-09-10T22:34:43.340Z,11.30
2022-09-10T22:37:46.837Z,11.20
2022-09-10T22:40:51.497Z,11.20
2022-09-10T22:43:57.050Z,11.10
2022-09-10T22:47:00.957Z,10.70
2022-09-10T22:50:05.580Z,11.20
2022-09-10T22:53:09.366Z,11.10
2022-09-10T22:56:14.352Z,11.10
2022-09-10T22:59:19.441Z,11.10
2022-09-10T23:02:22.887Z,11.20
2022-09-10T23:05:26.399Z,11.20
2022-09-10T23:08:29.755Z,11.20
2022-09-10T23:11:34.631Z,11.20
2022-09-10T23:14:39.726Z,11.10
2022-09-10T23:17:43.461Z,11.10
2022-09-10T23:20:46.778Z,11.10
2022-09-10T23:23:52.144Z,11.20
2022-09-10T23:26:55.995Z,11.10
2022-09-10T23:30:01.038Z,11.20
2022-09-10T23:33:04.344Z,11.20
2022-09-10T23:36:08.283Z,11.20
2022-09-10T23:39:15.307Z,11.20
2022-09-10T23:42:18.733Z,11.20
2022-09-10T23:45:23.997Z,11.20
2022-09-10T23:48:28.271Z,11.30
2022-09-10T23:51:31.975Z,11.30
2022-09-10T23:54:35.216Z,11.20
2022-09-10T23:57:39.181Z,11.20
